Time;durP1;ratioP1;P1;durP2;ratioP2;P2;SDS_P1;SDS_P2;PMS_P1;PMS_P2;Temp;Humidity;BMP_temperature;BMP_pressure;BME280_temperature;BME280_humidity;BME280_pressure;Samples;Min_cycle;Max_cycle;Signal;HPM_P1;HPM_P2
2022/05/09 00:01:46;;;;;;;2.28;1.08;;;;;;;19.00;35.90;102402.00;5036321;28;20032;-65
2022/05/09 00:04:12;;;;;;;2.45;1.23;;;;;;;18.97;35.61;102403.16;5036584;28;20033;-66
2022/05/09 00:06:37;;;;;;;7.75;1.33;;;;;;;18.94;36.56;102399.88;5036089;28;20029;-65
2022/05/09 00:09:04;;;;;;;7.70;1.67;;;;;;;18.90;35.78;102391.16;5036042;28;20025;-66
2022/05/09 00:11:29;;;;;;;2.30;1.42;;;;;;;18.85;35.83;102392.56;5036386;28;20048;-65
2022/05/09 00:13:55;;;;;;;5.78;1.42;;;;;;;18.80;36.46;102395.75;5036037;28;20048;-65
2022/05/09 00:16:21;;;;;;;9.32;1.50;;;;;;;18.76;36.74;102399.72;5036198;28;20021;-65
2022/05/09 00:18:46;;;;;;;3.33;1.38;;;;;;;18.73;35.28;102394.63;5036013;28;20029;-65
2022/05/09 00:21:12;;;;;;;2.80;1.40;;;;;;;18.68;36.12;102399.59;5018013;28;20112;-66
2022/05/09 00:23:37;;;;;;;6.53;1.38;;;;;;;18.63;36.07;102391.03;5035884;28;20076;-66
2022/05/09 00:26:03;;;;;;;1.77;1.08;;;;;;;18.60;36.18;102391.31;5036072;28;20030;-66
2022/05/09 00:28:29;;;;;;;4.40;1.30;;;;;;;18.57;35.63;102394.31;5035883;28;20499;-64
2022/05/09 00:30:54;;;;;;;1.08;0.95;;;;;;;18.52;36.88;102394.75;5036013;28;20148;-66
2022/05/09 00:33:20;;;;;;;2.55;1.30;;;;;;;18.48;36.65;102390.59;5035135;28;20056;-65
2022/05/09 00:35:46;;;;;;;3.28;1.30;;;;;;;18.44;37.34;102388.28;5035696;28;20032;-66
2022/05/09 00:38:11;;;;;;;3.13;1.40;;;;;;;18.38;36.20;102388.84;5035817;28;20030;-65
2022/05/09 00:40:38;;;;;;;6.55;1.38;;;;;;;18.34;37.01;102390.97;5035712;28;20060;-65
2022/05/09 00:43:33;;;;;;;2.17;1.10;;;;;;;18.30;35.86;102385.97;5035381;28;20087;-66
2022/05/09 00:45:59;;;;;;;1.65;1.20;;;;;;;18.27;37.10;102384.41;5034385;28;20060;-66
2022/05/09 00:48:24;;;;;;;4.13;1.40;;;;;;;18.25;36.78;102382.84;5035336;28;20045;-66
2022/05/09 00:50:49;;;;;;;5.38;1.35;;;;;;;18.22;37.12;102385.84;5035267;28;20018;-66
2022/05/09 00:53:15;;;;;;;3.33;1.33;;;;;;;18.19;36.67;102378.84;5017845;28;20022;-65
2022/05/09 00:55:45;;;;;;;7.13;1.40;;;;;;;18.17;36.38;102379.97;5035124;28;20029;-65
2022/05/09 00:58:15;;;;;;;1.00;0.90;;;;;;;18.16;37.33;102378.25;5035125;28;20068;-65
2022/05/09 01:00:44;;;;;;;2.92;1.73;;;;;;;18.13;36.45;102373.97;5034908;28;20021;-65
2022/05/09 01:03:13;;;;;;;1.92;1.30;;;;;;;18.14;36.07;102380.25;5017698;28;20021;-65
2022/05/09 01:05:41;;;;;;;4.50;1.60;;;;;;;18.11;37.27;102377.81;5035188;28;20075;-64
2022/05/09 01:08:06;;;;;;;1.27;1.17;;;;;;;18.09;37.74;102372.53;5035010;28;20025;-66
2022/05/09 01:10:34;;;;;;;3.30;1.48;;;;;;;18.08;36.40;102380.81;5034978;28;20032;-66
2022/05/09 01:13:05;;;;;;;3.80;1.70;;;;;;;18.04;37.45;102374.81;5017378;28;20104;-66
2022/05/09 01:15:30;;;;;;;3.90;1.55;;;;;;;17.99;37.64;102377.06;5017237;28;20064;-65
2022/05/09 01:17:56;;;;;;;7.25;1.60;;;;;;;17.95;36.73;102383.78;5017036;28;20053;-65
2022/05/09 01:20:22;;;;;;;1.20;1.10;;;;;;;17.92;37.18;102376.75;5034553;28;20037;-66
2022/05/09 01:22:47;;;;;;;3.35;1.65;;;;;;;17.89;36.67;102371.66;5034251;28;20033;-66
2022/05/09 01:25:14;;;;;;;2.05;1.35;;;;;;;17.87;36.64;102376.34;5034666;28;20116;-65
2022/05/09 01:27:43;;;;;;;2.55;1.30;;;;;;;17.83;37.20;102366.78;5034847;28;20030;-65
2022/05/09 01:30:15;;;;;;;4.65;1.40;;;;;;;17.81;37.87;102374.16;5034698;28;20075;-65
2022/05/09 01:32:48;;;;;;;3.43;1.40;;;;;;;17.78;37.99;102366.31;5016937;28;20069;-65
2022/05/09 01:35:34;;;;;;;;;;;;;;;17.76;38.14;102364.75;5017218;28;20037;-65
2022/05/09 01:38:24;;;;;;;4.25;1.83;;;;;;;17.73;37.68;102363.16;5017097;28;20314;-65
2022/05/09 01:40:49;;;;;;;4.28;1.67;;;;;;;17.70;37.85;102366.16;5017171;28;20428;-66
2022/05/09 01:43:28;;;;;;;1.15;1.10;;;;;;;17.67;37.00;102360.16;5034298;28;20049;-65
2022/05/09 01:45:53;;;;;;;3.00;1.75;;;;;;;17.65;38.31;102359.41;5034387;28;20017;-66
2022/05/09 01:51:02;;;;;;;3.80;1.88;;;;;;;17.60;38.80;102359.84;5034176;28;20076;-65
2022/05/09 01:53:28;;;;;;;2.60;1.48;;;;;;;17.58;37.89;102372.69;5034230;28;20033;-66
2022/05/09 01:55:53;;;;;;;5.00;2.00;;;;;;;17.57;37.51;102365.53;5034144;28;20029;-64
2022/05/09 01:58:18;;;;;;;4.43;1.80;;;;;;;17.57;37.09;102364.66;5034027;28;20037;-66
2022/05/09 02:00:44;;;;;;;5.45;1.75;;;;;;;17.55;38.15;102361.25;5034193;28;20025;-66
2022/05/09 02:03:09;;;;;;;5.15;1.42;;;;;;;17.54;38.51;102359.53;5034430;28;20025;-65
2022/05/09 02:05:35;;;;;;;1.70;1.48;;;;;;;17.48;38.39;102363.59;5034050;28;20056;-65
2022/05/09 02:08:00;;;;;;;7.35;1.95;;;;;;;17.44;37.78;102354.91;5033910;28;20383;-65
2022/05/09 02:10:25;;;;;;;3.85;1.92;;;;;;;17.40;38.45;102358.00;5033961;28;20467;-65
2022/05/09 02:12:51;;;;;;;3.00;1.80;;;;;;;17.35;38.90;102363.00;5033767;28;20115;-66
2022/05/09 02:15:16;;;;;;;4.82;1.90;;;;;;;17.30;37.61;102351.72;5033734;28;20025;-65
2022/05/09 02:17:41;;;;;;;4.45;1.75;;;;;;;17.27;38.33;102363.66;5033504;28;20057;-66
2022/05/09 02:20:07;;;;;;;4.00;1.55;;;;;;;17.23;38.46;102361.34;5033451;28;20064;-65
2022/05/09 02:22:33;;;;;;;5.15;1.83;;;;;;;17.20;37.88;102361.63;5033877;28;20498;-66
2022/05/09 02:24:58;;;;;;;7.38;1.92;;;;;;;17.18;38.20;102359.06;5033558;28;20095;-65
2022/05/09 02:27:24;;;;;;;8.77;2.10;;;;;;;17.17;38.07;102359.22;5033654;28;20071;-64
2022/05/09 02:29:49;;;;;;;4.20;2.08;;;;;;;17.16;37.63;102361.03;5033553;28;20105;-65
2022/05/09 02:32:16;;;;;;;6.30;2.35;;;;;;;17.16;37.99;102368.31;5033535;28;20100;-65
2022/05/09 02:34:42;;;;;;;4.40;2.17;;;;;;;17.15;37.88;102363.88;5033698;28;20529;-65
2022/05/09 02:37:07;;;;;;;3.58;2.00;;;;;;;17.13;39.02;102365.88;5033635;28;20025;-66
2022/05/09 02:39:32;;;;;;;7.63;2.10;;;;;;;17.12;38.21;102364.13;5033517;28;20383;-66
2022/05/09 02:41:59;;;;;;;3.63;1.73;;;;;;;17.11;38.96;102359.72;5033471;28;20381;-65
2022/05/09 02:44:25;;;;;;;2.88;1.85;;;;;;;17.09;39.22;102359.84;5033654;28;20025;-65
2022/05/09 02:46:50;;;;;;;3.55;2.25;;;;;;;17.08;37.76;102362.72;5033541;28;20067;-65
2022/05/09 02:49:15;;;;;;;8.88;2.28;;;;;;;17.03;38.87;102360.38;5033334;28;20048;-65
2022/05/09 02:51:41;;;;;;;8.70;1.90;;;;;;;17.00;39.59;102365.22;5033249;28;20398;-67
2022/05/09 02:54:06;;;;;;;7.75;2.50;;;;;;;16.97;39.13;102360.06;5033328;28;20029;-65
2022/05/09 02:56:32;;;;;;;5.78;3.10;;;;;;;16.92;39.28;102363.16;5015579;28;20470;-65
2022/05/09 02:58:57;;;;;;;5.60;1.90;;;;;;;16.89;38.77;102364.28;5015971;28;20029;-65
2022/05/09 03:01:22;;;;;;;3.45;1.42;;;;;;;16.86;39.30;102363.72;5033325;28;20029;-66
2022/05/09 03:06:31;;;;;;;5.50;2.33;;;;;;;16.80;39.58;102356.97;5033217;28;20036;-66
2022/05/09 03:08:57;;;;;;;8.75;2.00;;;;;;;16.80;38.56;102359.69;5033343;28;20025;-65
2022/05/09 03:11:22;;;;;;;8.27;2.22;;;;;;;16.78;38.54;102364.34;5037061;28;20096;-66
2022/05/09 03:13:48;;;;;;;5.05;2.17;;;;;;;16.75;38.98;102361.91;5037240;28;20040;-65
2022/05/09 03:16:13;;;;;;;3.75;1.88;;;;;;;16.70;38.22;102358.75;5036866;28;20091;-65
2022/05/09 03:18:38;;;;;;;6.70;2.20;;;;;;;16.66;39.72;102346.50;5019139;28;20112;-65
2022/05/09 03:21:04;;;;;;;4.45;1.85;;;;;;;16.65;38.37;102355.59;5036733;28;20022;-66
2022/05/09 03:23:30;;;;;;;2.92;1.83;;;;;;;16.64;38.77;102347.56;5037035;28;20075;-65
2022/05/09 03:25:55;;;;;;;2.97;1.98;;;;;;;16.62;39.95;102347.72;5036846;28;20108;-65
2022/05/09 03:28:26;;;;;;;8.00;2.67;;;;;;;16.61;39.82;102355.97;5036885;28;20112;-65
2022/05/09 03:30:53;;;;;;;4.90;2.30;;;;;;;16.57;38.81;102347.25;5036578;28;20108;-65
2022/05/09 03:33:24;;;;;;;6.47;1.77;;;;;;;16.56;38.75;102347.38;5036381;28;20032;-66
2022/05/09 03:35:50;;;;;;;4.05;1.98;;;;;;;16.54;38.86;102342.13;5018572;28;20032;-65
2022/05/09 03:38:15;;;;;;;4.28;2.17;;;;;;;16.54;38.96;102352.06;5036302;28;20057;-65
2022/05/09 03:40:41;;;;;;;3.97;2.03;;;;;;;16.53;39.12;102345.78;5036419;28;20056;-65
2022/05/09 03:43:06;;;;;;;6.35;2.38;;;;;;;16.53;38.90;102351.19;5036399;28;20537;-66
2022/05/09 03:45:33;;;;;;;3.70;1.85;;;;;;;16.54;39.86;102347.53;5036404;28;20025;-65
2022/05/09 03:47:59;;;;;;;8.30;2.28;;;;;;;16.53;38.67;102350.31;5036525;28;20042;-65
2022/05/09 03:50:26;;;;;;;4.32;2.20;;;;;;;16.52;39.96;102349.47;5036724;28;20025;-65
2022/05/09 03:52:51;;;;;;;10.88;2.40;;;;;;;16.51;38.88;102353.16;5036555;28;20029;-66
2022/05/09 03:55:16;;;;;;;5.05;2.67;;;;;;;16.50;38.71;102351.44;5036409;28;20387;-66
2022/05/09 03:57:51;;;;;;;3.85;2.55;;;;;;;16.49;39.06;102355.13;5036067;28;20471;-66
2022/05/09 04:00:18;;;;;;;3.75;2.33;;;;;;;16.48;39.24;102348.00;5036509;28;20036;-66
2022/05/09 04:02:44;;;;;;;6.45;2.50;;;;;;;16.47;39.55;102340.03;5036632;28;20479;-65
2022/05/09 04:05:15;;;;;;;5.93;2.33;;;;;;;16.45;39.95;102342.00;5036267;28;20092;-65
2022/05/09 04:07:48;;;;;;;8.25;3.20;;;;;;;16.43;39.21;102349.38;5036116;28;20116;-66
2022/05/09 04:10:16;;;;;;;6.18;2.47;;;;;;;16.41;38.99;102337.84;5036193;28;20164;-65
2022/05/09 04:12:42;;;;;;;3.95;2.40;;;;;;;16.39;40.70;102332.53;5036132;28;20030;-65
2022/05/09 04:17:53;;;;;;;3.70;1.83;;;;;;;16.42;39.59;102337.69;5036188;28;20410;-66
2022/05/09 04:20:19;;;;;;;4.50;1.88;;;;;;;16.44;40.23;102346.56;5035440;28;20021;-65
2022/05/09 04:22:44;;;;;;;3.60;1.85;;;;;;;16.46;39.30;102344.56;5000985;28;20040;-66
2022/05/09 04:25:12;;;;;;;2.47;1.98;;;;;;;16.49;40.09;102349.72;5001643;28;20114;-66
2022/05/09 04:27:37;;;;;;;9.88;2.45;;;;;;;16.53;40.55;102351.19;5035734;28;20044;-65
2022/05/09 04:30:04;;;;;;;6.00;2.45;;;;;;;16.56;40.16;102350.94;5035861;28;20025;-65
2022/05/09 04:32:29;;;;;;;10.15;2.83;;;;;;;16.60;40.52;102349.72;5035794;28;20109;-66
2022/05/09 04:34:55;;;;;;;5.50;2.45;;;;;;;16.61;39.49;102348.69;5035820;28;20049;-65
2022/05/09 04:37:20;;;;;;;12.77;2.42;;;;;;;16.64;40.79;102348.44;5035478;28;20025;-66
2022/05/09 04:39:47;;;;;;;5.60;1.92;;;;;;;16.66;39.44;102349.19;5035605;28;20021;-66
2022/05/09 04:42:14;;;;;;;11.27;2.38;;;;;;;16.73;40.07;102353.06;5035551;28;20407;-66
2022/05/09 04:44:39;;;;;;;10.93;3.05;;;;;;;16.76;40.77;102339.28;5035371;28;20031;-66
2022/05/09 04:47:05;;;;;;;2.85;2.22;;;;;;;16.82;40.81;102346.88;5035517;28;20113;-66
2022/05/09 04:49:30;;;;;;;6.72;3.28;;;;;;;16.91;40.02;102345.22;5035291;28;20053;-65
2022/05/09 04:51:55;;;;;;;7.95;2.83;;;;;;;17.02;39.79;102347.00;5035589;28;20100;-65
2022/05/09 04:54:21;;;;;;;8.82;2.63;;;;;;;17.13;39.32;102349.63;5035377;28;20053;-65
2022/05/09 04:56:46;;;;;;;6.55;2.25;;;;;;;17.23;39.20;102340.53;5035426;28;20076;-65
2022/05/09 04:59:11;;;;;;;3.53;2.45;;;;;;;17.34;40.40;102336.88;5035098;28;20083;-65
2022/05/09 05:01:37;;;;;;;7.03;2.50;;;;;;;17.45;40.32;102339.50;5035629;28;20105;-65
2022/05/09 05:04:05;;;;;;;10.25;2.53;;;;;;;17.56;39.96;102334.00;5035482;28;20064;-66
2022/05/09 05:06:31;;;;;;;9.52;2.47;;;;;;;17.68;39.40;102335.63;5035134;28;20026;-65
2022/05/09 05:08:56;;;;;;;10.73;4.30;;;;;;;17.81;40.67;102340.81;5035345;28;20022;-66
2022/05/09 05:11:22;;;;;;;6.90;2.80;;;;;;;17.92;40.68;102332.56;5035024;28;20029;-65
2022/05/09 05:13:47;;;;;;;11.25;2.67;;;;;;;18.04;40.09;102337.69;5017292;28;20061;-67
2022/05/09 05:16:12;;;;;;;7.20;2.33;;;;;;;18.18;39.38;102333.72;5035209;28;20450;-66
2022/05/09 05:18:38;;;;;;;11.95;2.67;;;;;;;18.33;38.88;102334.16;5035129;28;20025;-66
2022/05/09 05:21:12;;;;;;;5.75;2.53;;;;;;;18.48;39.67;102339.03;5035003;28;20108;-66
2022/05/09 05:23:38;;;;;;;6.28;2.50;;;;;;;18.64;38.94;102335.75;5034896;28;20029;-66
2022/05/09 05:26:04;;;;;;;11.52;2.33;;;;;;;18.82;39.31;102339.41;5035158;28;20034;-66
2022/05/09 05:28:32;;;;;;;5.65;2.72;;;;;;;18.97;38.84;102337.97;5035011;28;20080;-65
2022/05/09 05:31:10;;;;;;;11.18;3.00;;;;;;;19.14;39.65;102337.22;5017765;28;20032;-65
2022/05/09 05:33:35;;;;;;;11.93;2.92;;;;;;;19.28;39.92;102338.59;5034030;28;20029;-65
2022/05/09 05:36:01;;;;;;;17.92;4.28;;;;;;;19.42;38.46;102337.28;5034615;28;20079;-65
2022/05/09 05:38:27;;;;;;;9.30;2.17;;;;;;;19.56;38.60;102347.66;5034390;28;20100;-66
2022/05/09 05:40:57;;;;;;;6.20;2.60;;;;;;;19.73;38.56;102335.97;5034164;28;20029;-66
2022/05/09 05:43:22;;;;;;;8.25;2.75;;;;;;;19.90;38.38;102343.31;5034862;28;20037;-66
2022/05/09 05:45:47;;;;;;;5.25;3.05;;;;;;;20.11;38.12;102343.88;5016888;28;20057;-66
2022/05/09 05:48:13;;;;;;;5.20;2.80;;;;;;;20.30;38.47;102345.63;5034363;28;20048;-65
2022/05/09 05:50:38;;;;;;;8.18;2.85;;;;;;;20.47;38.35;102330.31;5034657;28;20051;-66
2022/05/09 05:53:04;;;;;;;6.35;3.15;;;;;;;20.68;37.47;102336.28;5034507;28;20026;-65
2022/05/09 05:55:29;;;;;;;6.78;2.90;;;;;;;20.87;37.46;102338.81;5034827;28;20106;-65
2022/05/09 05:57:55;;;;;;;6.63;3.08;;;;;;;21.06;37.71;102348.66;5034467;28;20037;-65
2022/05/09 06:00:22;;;;;;;9.55;2.53;;;;;;;21.25;37.44;102341.13;5034229;28;20025;-65
2022/05/09 06:02:48;;;;;;;8.40;2.65;;;;;;;21.45;37.09;102339.88;5034350;28;20025;-65
2022/05/09 06:05:16;;;;;;;5.13;2.75;;;;;;;21.67;37.42;102337.56;5034419;28;20025;-65
2022/05/09 06:07:42;;;;;;;8.32;2.90;;;;;;;21.84;37.23;102344.81;5034379;28;20390;-65
2022/05/09 06:10:09;;;;;;;11.85;2.97;;;;;;;22.00;37.01;102336.69;5034083;28;20025;-66
2022/05/09 06:12:34;;;;;;;8.75;2.67;;;;;;;22.12;36.13;102332.63;5034133;28;20021;-65
2022/05/09 06:17:44;;;;;;;7.72;3.00;;;;;;;22.45;35.60;102339.84;5019568;28;20104;-66
2022/05/09 06:20:11;;;;;;;9.23;3.45;;;;;;;22.58;35.83;102337.44;5033630;28;20041;-66
2022/05/09 06:22:38;;;;;;;10.75;4.40;;;;;;;22.75;36.23;102334.78;5033868;28;20030;-65
2022/05/09 06:25:05;;;;;;;7.15;2.65;;;;;;;22.88;35.81;102332.34;5034064;28;20034;-65
2022/05/09 06:27:31;;;;;;;10.88;2.92;;;;;;;23.06;35.19;102338.50;5033736;28;20034;-66
2022/05/09 06:29:56;;;;;;;11.77;3.00;;;;;;;23.22;35.00;102332.13;5034574;28;20471;-65
2022/05/09 06:32:25;;;;;;;11.63;3.08;;;;;;;23.38;34.67;102332.97;5033783;28;20443;-65
2022/05/09 06:34:52;;;;;;;6.45;3.15;;;;;;;23.53;35.05;102336.69;5034150;28;20100;-66
2022/05/09 06:37:17;;;;;;;5.38;3.13;;;;;;;23.70;35.48;102338.28;5033710;28;20462;-65
2022/05/09 06:39:43;;;;;;;14.32;3.78;;;;;;;23.89;34.42;102339.75;5033942;28;20037;-65
2022/05/09 06:42:08;;;;;;;7.60;2.78;;;;;;;24.06;34.81;102324.09;5033966;28;20500;-65
2022/05/09 06:44:35;;;;;;;9.60;3.50;;;;;;;24.24;34.87;102324.66;5035402;28;20025;-65
2022/05/09 06:47:01;;;;;;;16.75;3.75;;;;;;;24.40;34.71;102324.53;5037789;28;20387;-65
2022/05/09 06:49:27;;;;;;;10.80;3.20;;;;;;;24.58;34.42;102321.50;5037580;28;20053;-65
2022/05/09 06:51:52;;;;;;;6.13;2.50;;;;;;;24.77;34.15;102316.34;5038140;28;20026;-65
2022/05/09 06:54:21;;;;;;;6.53;2.95;;;;;;;24.96;33.78;102320.47;5038003;28;20021;-65
2022/05/09 06:56:47;;;;;;;12.43;3.67;;;;;;;25.16;33.36;102318.03;5037643;28;20026;-65
2022/05/09 06:59:12;;;;;;;11.15;3.28;;;;;;;25.37;33.19;102319.00;5037280;28;20039;-66
2022/05/09 07:01:37;;;;;;;8.63;3.42;;;;;;;25.59;33.47;102316.34;5037110;28;20068;-65
2022/05/09 07:04:03;;;;;;;4.38;3.10;;;;;;;25.79;32.86;102323.81;5037519;28;20059;-65
2022/05/09 07:06:29;;;;;;;10.40;3.25;;;;;;;25.98;32.49;102311.34;5037243;28;20025;-65
2022/05/09 07:08:54;;;;;;;7.22;3.05;;;;;;;26.15;32.42;102317.47;5037436;28;20021;-65
2022/05/09 07:11:20;;;;;;;7.32;3.67;;;;;;;26.28;32.04;102312.09;5037194;28;20026;-65
2022/05/09 07:13:45;;;;;;;7.13;3.28;;;;;;;26.45;32.38;102313.56;5037164;28;20025;-65
2022/05/09 07:16:11;;;;;;;7.78;3.13;;;;;;;26.61;31.88;102313.25;5037106;28;20036;-65
2022/05/09 07:18:38;;;;;;;12.00;3.17;;;;;;;26.82;32.30;102316.03;5036957;28;20025;-65
2022/05/09 07:21:05;;;;;;;7.78;2.83;;;;;;;26.98;31.44;102304.72;5037065;28;20029;-65
2022/05/09 07:23:30;;;;;;;8.30;3.53;;;;;;;27.16;30.98;102306.97;5037236;28;20527;-64
2022/05/09 07:25:56;;;;;;;10.20;3.90;;;;;;;27.29;31.32;102300.69;5036962;28;20056;-65
2022/05/09 07:28:21;;;;;;;7.30;2.90;;;;;;;27.45;31.40;102311.38;5037037;28;20030;-65
2022/05/09 07:30:48;;;;;;;10.27;3.72;;;;;;;27.56;30.56;102306.16;5036863;28;20022;-65
2022/05/09 07:33:15;;;;;;;5.18;3.28;;;;;;;27.71;30.69;102295.00;5036688;28;20021;-66
2022/05/09 07:35:42;;;;;;;7.68;3.45;;;;;;;27.89;30.58;102297.19;5036426;28;20155;-65
2022/05/09 07:38:07;;;;;;;6.45;2.78;;;;;;;28.05;30.96;102292.16;5019260;28;20025;-65
2022/05/09 07:40:33;;;;;;;8.30;3.58;;;;;;;28.25;31.01;102293.03;5036502;28;20037;-65
2022/05/09 07:42:59;;;;;;;6.35;3.20;;;;;;;28.41;30.92;102297.31;5036935;28;20501;-65
2022/05/09 07:45:24;;;;;;;10.48;3.35;;;;;;;28.58;30.08;102294.97;5036833;28;20032;-66
2022/05/09 07:47:49;;;;;;;9.07;3.03;;;;;;;28.80;30.54;102302.00;5036699;28;20113;-65
2022/05/09 07:50:16;;;;;;;6.40;2.63;;;;;;;28.97;29.49;102296.91;5036362;28;20056;-65
2022/05/09 07:52:42;;;;;;;8.02;2.83;;;;;;;29.15;29.68;102295.16;5036470;28;20025;-65
2022/05/09 07:55:09;;;;;;;4.15;2.72;;;;;;;29.36;29.87;102291.31;5035821;28;20021;-65
2022/05/09 07:57:34;;;;;;;7.82;3.38;;;;;;;29.51;28.94;102299.34;5035935;28;20025;-65
2022/05/09 08:00:00;;;;;;;8.20;3.30;;;;;;;29.67;29.01;102290.56;5018282;28;20040;-66
2022/05/09 08:02:25;;;;;;;4.95;2.40;;;;;;;29.79;28.98;102288.78;5035978;28;20502;-65
2022/05/09 08:04:51;;;;;;;8.38;3.38;;;;;;;29.97;28.83;102294.47;5035800;28;20021;-66
2022/05/09 08:07:17;;;;;;;6.80;2.63;;;;;;;30.16;28.86;102289.88;5035787;28;20114;-65
2022/05/09 08:09:42;;;;;;;8.48;2.63;;;;;;;30.34;28.92;102284.44;5018573;28;20021;-66
2022/05/09 08:12:09;;;;;;;7.38;3.30;;;;;;;30.52;28.70;102282.63;5035716;28;20489;-66
2022/05/09 08:14:34;;;;;;;8.05;2.42;;;;;;;30.73;28.16;102283.28;5035999;28;20130;-66
2022/05/09 08:17:02;;;;;;;4.40;2.55;;;;;;;30.91;28.10;102280.53;5035627;28;20099;-66
2022/05/09 08:19:29;;;;;;;5.63;2.67;;;;;;;31.10;27.94;102279.56;5035947;28;20491;-66
2022/05/09 08:21:55;;;;;;;11.18;2.75;;;;;;;31.27;27.48;102282.56;5035478;28;20026;-66
2022/05/09 08:24:20;;;;;;;4.82;2.65;;;;;;;31.41;27.62;102276.59;5035437;28;20403;-65
2022/05/09 08:26:45;;;;;;;13.07;3.05;;;;;;;31.55;27.77;102274.53;5035827;28;20035;-65
2022/05/09 08:29:11;;;;;;;7.35;2.80;;;;;;;31.67;27.64;102281.00;5035487;28;20083;-66
2022/05/09 08:31:36;;;;;;;6.35;2.03;;;;;;;31.79;27.48;102284.69;5035613;28;20402;-66
2022/05/09 08:34:02;;;;;;;5.35;3.05;;;;;;;31.91;27.18;102277.25;5035352;28;20418;-65
2022/05/09 08:36:46;;;;;;;6.43;2.58;;;;;;;32.06;27.24;102274.09;5035341;28;20034;-65
2022/05/09 08:39:13;;;;;;;5.82;2.50;;;;;;;32.19;26.68;102279.47;5035389;28;20045;-66
2022/05/09 08:41:54;;;;;;;10.05;3.25;;;;;;;32.33;26.64;102280.91;5035475;28;20348;-66
2022/05/09 08:44:37;;;;;;;6.32;2.85;;;;;;;32.47;26.66;102282.38;5035050;28;20021;-66
2022/05/09 08:47:21;;;;;;;6.13;3.25;;;;;;;32.60;27.05;102282.22;5035660;28;20035;-65
2022/05/09 08:50:21;;;;;;;6.50;3.10;;;;;;;32.72;26.18;102279.44;5034794;28;20049;-67
2022/05/09 08:53:07;;;;;;;5.65;2.80;;;;;;;32.86;26.81;102280.06;5035166;28;20029;-65
2022/05/09 08:55:38;;;;;;;7.30;2.42;;;;;;;33.00;25.86;102284.28;5017093;28;20025;-66
2022/05/09 08:58:09;;;;;;;11.18;2.70;;;;;;;33.12;26.25;102280.41;5017322;28;20018;-67
2022/05/09 09:00:37;;;;;;;3.10;1.95;;;;;;;33.27;26.49;102282.69;5034932;28;20031;-66
2022/05/09 09:03:14;;;;;;;6.43;2.38;;;;;;;33.42;25.51;102285.78;5017103;28;20029;-65
2022/05/09 09:05:42;;;;;;;4.72;1.75;;;;;;;33.55;25.86;102277.19;5034849;28;20031;-65
2022/05/09 09:08:18;;;;;;;7.00;1.92;;;;;;;33.72;26.10;102275.38;5016524;28;20025;-66
2022/05/09 09:11:01;;;;;;;4.97;2.33;;;;;;;33.87;25.52;102278.41;5034707;28;20119;-66
2022/05/09 09:13:48;;;;;;;5.47;2.28;;;;;;;34.01;25.20;102280.88;5034535;28;20032;-65
2022/05/09 09:16:41;;;;;;;12.30;3.15;;;;;;;34.16;25.76;102270.09;5034564;28;20040;-66
2022/05/09 09:19:40;;;;;;;4.72;2.20;;;;;;;34.32;25.89;102258.97;5016851;28;20022;-66
2022/05/09 09:22:13;;;;;;;4.35;2.20;;;;;;;34.46;25.69;102259.47;5034259;28;20036;-66
2022/05/09 09:24:49;;;;;;;4.15;2.40;;;;;;;34.61;24.55;102261.72;5034445;28;20029;-66
2022/05/09 09:27:23;;;;;;;4.53;2.67;;;;;;;34.75;25.08;102263.03;5034706;28;20505;-66
2022/05/09 09:29:54;;;;;;;5.18;2.30;;;;;;;34.83;24.93;102262.63;5034450;28;20368;-66
2022/05/09 09:32:20;;;;;;;7.65;2.58;;;;;;;34.93;24.95;102260.81;5016586;28;20514;-66
2022/05/09 09:34:59;;;;;;;3.55;2.03;;;;;;;34.97;24.04;102256.44;5034403;28;20022;-66
2022/05/09 09:37:44;;;;;;;9.73;2.55;;;;;;;35.13;24.66;102259.44;5016560;28;20079;-66
2022/05/09 09:40:10;;;;;;;6.97;2.88;;;;;;;35.22;24.94;102257.91;5034174;28;20124;-66
2022/05/09 09:42:36;;;;;;;6.85;2.55;;;;;;;35.35;24.13;102263.09;5034059;28;20522;-67
2022/05/09 09:45:14;;;;;;;7.70;2.13;;;;;;;35.46;24.02;102262.97;5034319;28;20105;-66
2022/05/09 09:47:39;;;;;;;4.25;2.47;;;;;;;35.57;23.46;102250.00;5016358;28;20064;-65
2022/05/09 09:50:25;;;;;;;8.93;2.38;;;;;;;35.79;23.42;102258.38;5033848;28;20045;-65
2022/05/09 09:52:53;;;;;;;8.80;2.17;;;;;;;36.10;23.48;102249.22;5034116;28;20057;-66
2022/05/09 09:55:30;;;;;;;7.45;4.68;;;;;;;36.56;23.34;102242.94;5033787;28;20026;-66
2022/05/09 09:57:57;;;;;;;6.13;5.28;;;;;;;37.14;23.42;102244.72;5034087;28;20026;-66
2022/05/09 10:00:29;;;;;;;6.45;2.63;;;;;;;37.93;22.09;102241.69;5033911;28;20033;-67
2022/05/09 10:02:56;;;;;;;3.80;1.85;;;;;;;39.09;21.39;102238.84;5034049;28;20021;-66
2022/05/09 10:05:32;;;;;;;7.50;2.30;;;;;;;40.05;20.91;102239.22;5016271;28;20038;-67
2022/05/09 10:07:57;;;;;;;7.10;2.35;;;;;;;39.76;20.97;102229.03;5016491;28;20017;-66
2022/05/09 10:10:25;;;;;;;6.65;2.28;;;;;;;39.27;21.29;102229.00;4999549;28;20017;-67
2022/05/09 10:12:56;;;;;;;4.03;2.53;;;;;;;38.93;20.89;102234.41;5033918;28;20021;-66
2022/05/09 10:15:38;;;;;;;6.27;2.13;;;;;;;38.70;21.70;102226.56;5034083;28;20056;-66
2022/05/09 10:18:21;;;;;;;5.07;2.45;;;;;;;38.62;22.03;102229.94;5033653;28;20308;-66
2022/05/09 10:20:50;;;;;;;4.53;2.20;;;;;;;38.69;20.99;102219.31;5033499;28;20033;-67
2022/05/09 10:26:07;;;;;;;3.50;2.83;;;;;;;39.00;20.92;102215.34;5033826;28;20037;-66
2022/05/09 10:28:37;;;;;;;9.00;2.55;;;;;;;39.15;21.06;102212.44;5015788;28;20048;-66
2022/05/09 10:31:13;;;;;;;6.85;2.80;;;;;;;39.34;21.18;102210.72;5033493;28;20025;-66
2022/05/09 10:33:47;;;;;;;8.15;2.92;;;;;;;39.59;20.95;102210.56;5015975;28;20115;-66
2022/05/09 10:36:37;;;;;;;7.20;2.83;;;;;;;39.87;20.44;102203.38;5017081;28;20053;-67
2022/05/09 10:39:17;;;;;;;7.13;2.50;;;;;;;40.06;20.77;102204.38;5032619;28;20032;-66
2022/05/09 10:41:46;;;;;;;5.45;3.05;;;;;;;40.18;20.75;102195.59;5033367;28;20022;-66
2022/05/09 10:44:49;;;;;;;8.80;2.97;;;;;;;40.29;20.22;102191.56;5033358;28;20033;-66
2022/05/09 10:47:38;;;;;;;6.35;3.05;;;;;;;40.42;20.64;102185.25;5033326;28;20017;-66
2022/05/09 10:50:21;;;;;;;4.63;2.85;;;;;;;40.54;20.35;102188.53;5033127;28;20453;-66
2022/05/09 10:52:55;;;;;;;5.25;3.47;;;;;;;40.57;19.80;102175.84;5015791;28;20033;-67
2022/05/09 10:55:40;;;;;;;6.75;3.85;;;;;;;40.61;20.03;102183.41;5033357;28;20521;-66
2022/05/09 10:58:25;;;;;;;6.05;2.88;;;;;;;40.59;20.00;102177.25;5015705;28;20032;-65
2022/05/09 11:00:57;;;;;;;8.65;3.35;;;;;;;40.53;20.39;102164.38;5015939;28;20026;-66
2022/05/09 11:03:34;;;;;;;4.22;3.38;;;;;;;40.64;19.92;102165.94;5033755;28;20029;-66
2022/05/09 11:06:10;;;;;;;7.00;3.28;;;;;;;40.79;20.29;102161.28;5016898;28;20036;-66
2022/05/09 11:08:57;;;;;;;7.65;3.20;;;;;;;40.84;19.91;102164.03;5033396;28;20028;-66
2022/05/09 11:11:44;;;;;;;3.45;2.80;;;;;;;40.85;20.43;102160.06;5033434;28;20039;-67
2022/05/09 11:14:28;;;;;;;8.32;3.08;;;;;;;40.91;19.93;102154.09;5033973;28;20038;-66
2022/05/09 11:17:04;;;;;;;5.60;3.40;;;;;;;40.97;20.55;102166.13;5032953;28;20025;-66
2022/05/09 11:19:44;;;;;;;8.60;3.83;;;;;;;41.04;19.95;102158.19;5033004;28;20025;-66
2022/05/09 11:22:22;;;;;;;6.28;3.33;;;;;;;41.05;19.71;102157.03;5032854;28;20029;-66
2022/05/09 11:25:21;;;;;;;4.47;3.28;;;;;;;41.10;20.31;102152.16;5015130;28;20025;-67
2022/05/09 11:28:08;;;;;;;7.70;3.80;;;;;;;41.17;20.38;102146.19;4983017;28;20049;-67
2022/05/09 11:30:39;;;;;;;8.15;4.05;;;;;;;41.24;19.87;102146.63;5034256;28;20479;-66
2022/05/09 11:33:38;;;;;;;8.93;4.40;;;;;;;41.25;19.87;102142.69;5036461;28;20384;-67
2022/05/09 11:36:32;;;;;;;7.30;3.83;;;;;;;41.29;19.77;102138.13;5036583;28;20021;-66
2022/05/09 11:39:04;;;;;;;8.40;4.15;;;;;;;41.36;20.25;102143.41;5036642;28;20024;-66
2022/05/09 11:41:35;;;;;;;10.15;4.18;;;;;;;41.43;19.96;102133.44;5036281;28;20040;-66
2022/05/09 11:44:19;;;;;;;9.10;2.97;;;;;;;41.55;20.01;102133.81;5018881;28;20021;-66
2022/05/09 11:47:06;;;;;;;10.65;3.55;;;;;;;41.69;19.80;102136.69;5018858;28;20475;-66
2022/05/09 11:50:08;;;;;;;7.43;3.97;;;;;;;41.80;19.55;102126.94;5036403;28;20083;-66